createdAt,value
2023-09-23T00:00:48.004Z,3.22
2023-09-23T00:03:15.983Z,3.03
2023-09-23T00:05:45.258Z,3.50
2023-09-23T00:08:13.149Z,2.85
2023-09-23T00:10:40.590Z,2.85
2023-09-23T00:13:07.938Z,3.22
2023-09-23T00:15:36.536Z,2.72
2023-09-23T00:18:06.272Z,2.80
2023-09-23T00:20:34.568Z,3.70
2023-09-23T00:23:03.737Z,2.35
2023-09-23T00:25:31.082Z,2.45
2023-09-23T00:27:58.447Z,2.10
2023-09-23T00:30:27.864Z,2.70
2023-09-23T00:32:55.638Z,2.38
2023-09-23T00:35:23.141Z,2.42
2023-09-23T00:37:51.309Z,2.80
2023-09-23T00:40:28.763Z,2.20
2023-09-23T00:42:59.183Z,2.00
2023-09-23T00:45:30.619Z,2.10
2023-09-23T00:47:58.170Z,2.10
2023-09-23T00:50:25.996Z,2.13
2023-09-23T00:52:53.769Z,2.22
2023-09-23T00:55:22.076Z,2.45
2023-09-23T00:57:50.438Z,2.30
2023-09-23T01:00:26.339Z,2.20
2023-09-23T01:02:57.885Z,2.63
2023-09-23T01:05:29.921Z,2.70
2023-09-23T01:07:58.045Z,2.55
2023-09-23T01:10:26.126Z,2.58
2023-09-23T01:12:53.619Z,3.17
2023-09-23T01:15:22.312Z,2.60
2023-09-23T01:17:53.541Z,2.70
2023-09-23T01:20:22.087Z,2.53
2023-09-23T01:22:49.535Z,3.10
2023-09-23T01:25:20.877Z,2.38
2023-09-23T01:27:48.303Z,2.65
2023-09-23T01:30:15.733Z,2.40
2023-09-23T01:32:47.984Z,2.47
2023-09-23T01:35:19.514Z,2.40
2023-09-23T01:37:47.078Z,2.20
2023-09-23T01:40:19.348Z,2.20
2023-09-23T01:42:50.098Z,1.65
2023-09-23T01:45:17.537Z,2.45
2023-09-23T01:47:45.573Z,1.20
2023-09-23T01:50:14.429Z,1.73
2023-09-23T01:52:42.271Z,1.70
2023-09-23T01:55:13.921Z,1.70
2023-09-23T01:57:41.563Z,1.40
2023-09-23T02:00:16.288Z,1.65
2023-09-23T02:05:11.180Z,1.73
2023-09-23T02:07:40.594Z,1.67
2023-09-23T02:10:12.691Z,1.45
2023-09-23T02:12:40.066Z,1.27
2023-09-23T02:15:07.730Z,1.00
2023-09-23T02:17:37.526Z,1.35
2023-09-23T02:20:13.116Z,1.02
2023-09-23T02:22:43.025Z,1.10
2023-09-23T02:25:13.273Z,1.02
2023-09-23T02:27:41.241Z,1.63
2023-09-23T02:30:12.417Z,1.80
2023-09-23T02:32:50.413Z,1.95
2023-09-23T02:35:18.956Z,1.38
2023-09-23T02:37:47.565Z,1.25
2023-09-23T02:40:18.929Z,1.20
2023-09-23T02:42:48.165Z,1.10
2023-09-23T02:45:17.193Z,2.13
2023-09-23T02:47:45.664Z,1.88
2023-09-23T02:50:15.079Z,2.20
2023-09-23T02:52:43.634Z,2.05
2023-09-23T02:55:13.747Z,1.85
2023-09-23T02:57:42.607Z,2.38
2023-09-23T03:00:21.101Z,1.35
2023-09-23T03:02:54.156Z,1.48
2023-09-23T03:05:27.861Z,1.60
2023-09-23T03:07:59.069Z,1.90
2023-09-23T03:10:42.486Z,2.05
2023-09-23T03:13:13.244Z,2.00
2023-09-23T03:15:46.458Z,1.90
2023-09-23T03:18:19.083Z,2.03
2023-09-23T03:20:46.663Z,2.60
2023-09-23T03:23:14.233Z,2.25
2023-09-23T03:25:49.903Z,2.30
2023-09-23T03:28:18.743Z,2.20
2023-09-23T03:30:51.235Z,2.10
2023-09-23T03:33:22.661Z,2.20
2023-09-23T03:35:51.204Z,2.30
2023-09-23T03:38:19.515Z,2.28
2023-09-23T03:41:00.414Z,2.00
2023-09-23T03:43:28.229Z,2.30
2023-09-23T03:45:55.660Z,1.80
2023-09-23T03:48:23.448Z,1.92
2023-09-23T03:50:54.352Z,1.92
2023-09-23T03:53:25.167Z,1.60
2023-09-23T03:55:56.867Z,1.60
2023-09-23T03:58:25.882Z,2.10
2023-09-23T04:00:55.993Z,2.05
2023-09-23T04:03:27.291Z,2.17
2023-09-23T04:05:56.527Z,1.98
2023-09-23T04:08:24.006Z,2.15
2023-09-23T04:10:51.890Z,2.25
2023-09-23T04:13:19.840Z,2.42
2023-09-23T04:15:47.364Z,2.65
2023-09-23T04:18:14.777Z,2.50
2023-09-23T04:20:45.232Z,2.42
2023-09-23T04:23:12.970Z,2.38
2023-09-23T04:25:40.324Z,2.30
2023-09-23T04:28:07.778Z,2.38
2023-09-23T04:30:37.033Z,2.30
2023-09-23T04:33:04.580Z,2.95
2023-09-23T04:35:31.993Z,2.58
2023-09-23T04:37:59.908Z,2.40
2023-09-23T04:40:30.023Z,2.55
2023-09-23T04:42:57.661Z,3.58
2023-09-23T04:45:25.348Z,2.90
2023-09-23T04:47:53.017Z,2.58
2023-09-23T04:50:20.523Z,3.33
2023-09-23T04:52:48.262Z,3.35
2023-09-23T04:55:15.736Z,3.03
2023-09-23T04:57:43.115Z,3.50
2023-09-23T05:00:12.760Z,2.53
2023-09-23T05:02:40.592Z,2.78
2023-09-23T05:05:11.074Z,2.40
2023-09-23T05:07:38.839Z,2.55
2023-09-23T05:10:07.850Z,2.20
2023-09-23T05:12:35.482Z,2.80
2023-09-23T05:15:04.000Z,3.10
2023-09-23T05:17:32.158Z,2.50
2023-09-23T05:20:00.479Z,2.67
2023-09-23T05:22:28.714Z,2.97
2023-09-23T05:24:59.022Z,2.60
2023-09-23T05:27:26.571Z,2.90
2023-09-23T05:29:55.668Z,3.30
2023-09-23T05:32:23.129Z,2.50
2023-09-23T05:34:55.935Z,2.60
2023-09-23T05:37:23.472Z,2.65
2023-09-23T05:39:50.765Z,2.70
2023-09-23T05:42:27.507Z,2.63
2023-09-23T05:44:54.893Z,3.35
2023-09-23T05:47:24.568Z,2.70
2023-09-23T05:50:00.313Z,2.55
2023-09-23T05:52:28.765Z,2.40
2023-09-23T05:54:56.066Z,2.53
2023-09-23T05:57:23.593Z,2.35
2023-09-23T05:59:51.137Z,2.92
2023-09-23T06:02:18.601Z,2.50
2023-09-23T06:04:45.988Z,2.50
2023-09-23T06:07:13.436Z,2.60
2023-09-23T06:09:44.628Z,2.40
2023-09-23T06:12:14.669Z,2.35
2023-09-23T06:14:42.214Z,2.58
2023-09-23T06:17:10.270Z,2.28
2023-09-23T06:19:37.789Z,2.60
2023-09-23T06:22:05.145Z,2.65
2023-09-23T06:24:32.569Z,2.60
2023-09-23T06:26:59.877Z,2.88
2023-09-23T06:29:28.337Z,2.60
2023-09-23T06:31:56.570Z,2.30
2023-09-23T06:34:24.392Z,2.38
2023-09-23T06:36:51.811Z,2.20
2023-09-23T06:39:19.213Z,2.03
2023-09-23T06:41:47.264Z,1.95
2023-09-23T06:44:14.688Z,2.05
2023-09-23T06:46:42.062Z,1.77
2023-09-23T06:49:09.671Z,2.45
2023-09-23T06:51:37.037Z,2.00
2023-09-23T06:54:08.301Z,2.00
2023-09-23T06:56:38.996Z,2.33
2023-09-23T06:59:07.158Z,3.40
2023-09-23T07:01:35.903Z,2.38
2023-09-23T07:04:03.858Z,2.70
2023-09-23T07:06:31.315Z,3.45
2023-09-23T07:08:58.714Z,2.35
2023-09-23T07:11:26.092Z,2.25
2023-09-23T07:13:53.774Z,2.28
2023-09-23T07:16:21.235Z,2.28
2023-09-23T07:18:48.856Z,2.33
2023-09-23T07:21:16.382Z,2.15
2023-09-23T07:23:43.779Z,2.13
2023-09-23T07:26:11.091Z,2.40
2023-09-23T07:28:38.583Z,1.77
2023-09-23T07:31:10.940Z,2.50
2023-09-23T07:33:38.247Z,2.20
2023-09-23T07:36:15.526Z,1.88
2023-09-23T07:38:42.974Z,1.70
2023-09-23T07:41:10.340Z,2.53
2023-09-23T07:43:39.950Z,1.98
2023-09-23T07:46:07.660Z,2.00
2023-09-23T07:48:35.064Z,2.50
2023-09-23T07:51:02.830Z,2.50
2023-09-23T07:53:30.339Z,1.70
2023-09-23T07:55:57.909Z,1.90
2023-09-23T07:58:25.364Z,2.00
2023-09-23T08:00:53.724Z,2.00
2023-09-23T08:03:21.434Z,2.33
2023-09-23T08:05:49.033Z,1.67
2023-09-23T08:08:16.360Z,1.63
2023-09-23T08:10:43.820Z,2.95
2023-09-23T08:13:11.193Z,2.60
2023-09-23T08:15:38.763Z,2.00
2023-09-23T08:18:06.613Z,2.05
2023-09-23T08:20:34.251Z,1.58
2023-09-23T08:23:02.021Z,2.10
2023-09-23T08:25:30.096Z,1.88
2023-09-23T08:27:58.286Z,1.92
2023-09-23T08:30:26.349Z,1.63
2023-09-23T08:32:54.757Z,1.70
2023-09-23T08:35:22.630Z,1.52
2023-09-23T08:37:50.180Z,1.73
2023-09-23T08:40:20.693Z,1.30
2023-09-23T08:42:50.048Z,1.20
2023-09-23T08:45:17.699Z,1.10
2023-09-23T08:47:46.535Z,1.10
2023-09-23T08:50:14.013Z,1.05
2023-09-23T08:52:48.008Z,1.15
2023-09-23T08:55:16.637Z,1.20
2023-09-23T08:57:44.250Z,1.00
2023-09-23T09:00:14.043Z,1.02
2023-09-23T09:02:41.452Z,1.23
2023-09-23T09:05:10.539Z,1.20
2023-09-23T09:07:38.429Z,1.17
2023-09-23T09:10:07.004Z,1.40
2023-09-23T09:12:38.796Z,1.35
2023-09-23T09:19:00.215Z,1.30
2023-09-23T09:21:55.277Z,1.30
2023-09-23T09:24:23.934Z,1.40
2023-09-23T09:26:51.523Z,1.05
2023-09-23T09:29:19.482Z,1.52
2023-09-23T09:31:52.808Z,1.20
2023-09-23T09:34:23.761Z,1.80
2023-09-23T09:36:54.142Z,1.55
2023-09-23T09:39:23.309Z,1.77
2023-09-23T09:41:54.478Z,1.60
2023-09-23T09:44:24.883Z,1.20
2023-09-23T09:46:55.688Z,1.85
2023-09-23T09:49:23.570Z,1.50
2023-09-23T09:51:51.164Z,1.25
2023-09-23T09:54:20.429Z,1.88
2023-09-23T09:56:49.113Z,1.65
2023-09-23T09:59:29.510Z,1.20
2023-09-23T10:01:58.108Z,1.15
2023-09-23T10:04:32.751Z,1.15
2023-09-23T10:07:00.169Z,1.35
2023-09-23T10:09:31.814Z,1.05
2023-09-23T10:12:00.924Z,1.23
2023-09-23T10:14:28.094Z,1.35
2023-09-23T10:17:01.094Z,1.38
2023-09-23T10:19:34.513Z,1.30
2023-09-23T10:22:22.427Z,1.20
2023-09-23T10:25:05.770Z,1.50
2023-09-23T10:27:33.876Z,1.48
2023-09-23T10:30:05.252Z,1.40
2023-09-23T10:32:32.429Z,1.35
2023-09-23T10:35:00.358Z,1.60
2023-09-23T10:37:30.582Z,1.05
2023-09-23T10:40:10.255Z,1.70
2023-09-23T10:42:37.440Z,1.80
2023-09-23T10:45:04.719Z,1.50
2023-09-23T10:47:32.254Z,2.20
2023-09-23T10:50:07.130Z,1.63
2023-09-23T10:52:34.985Z,1.30
2023-09-23T10:55:02.362Z,1.48
2023-09-23T10:57:29.615Z,1.17
2023-09-23T11:00:00.463Z,1.25
2023-09-23T11:02:32.513Z,1.27
2023-09-23T11:05:00.851Z,1.25
2023-09-23T11:07:29.220Z,1.42
2023-09-23T11:10:00.228Z,1.35
2023-09-23T11:12:33.795Z,1.50
2023-09-23T11:15:03.832Z,1.02
2023-09-23T11:17:31.104Z,1.15
2023-09-23T11:20:11.397Z,1.20
2023-09-23T11:22:40.772Z,1.63
2023-09-23T11:25:11.889Z,1.30
2023-09-23T11:27:45.854Z,1.10
2023-09-23T11:30:13.469Z,1.10
2023-09-23T11:32:42.656Z,1.20
2023-09-23T11:35:10.210Z,1.20
2023-09-23T11:37:37.483Z,1.10
2023-09-23T11:40:05.409Z,1.38
2023-09-23T11:42:33.535Z,1.20
2023-09-23T11:45:00.810Z,1.30
2023-09-23T11:47:28.429Z,1.17
2023-09-23T11:50:09.330Z,1.20
2023-09-23T11:52:37.267Z,1.10
2023-09-23T11:55:04.522Z,1.10
2023-09-23T11:57:31.981Z,1.05
2023-09-23T12:00:03.444Z,1.10
2023-09-23T12:02:33.682Z,1.20
2023-09-23T12:05:01.208Z,1.48
2023-09-23T12:07:28.787Z,1.00
2023-09-23T12:09:56.075Z,1.30
2023-09-23T12:12:23.151Z,1.15
2023-09-23T12:14:52.268Z,1.30
2023-09-23T12:17:19.531Z,1.58
2023-09-23T12:19:46.654Z,1.08
2023-09-23T12:22:14.202Z,1.30
2023-09-23T12:24:41.184Z,1.17
2023-09-23T12:27:08.161Z,1.30
2023-09-23T12:29:36.080Z,1.00
2023-09-23T12:32:17.216Z,1.08
2023-09-23T12:34:45.420Z,1.13
2023-09-23T12:37:12.795Z,1.05
2023-09-23T12:39:40.389Z,1.10
2023-09-23T12:42:07.705Z,1.00
2023-09-23T12:44:34.871Z,1.10
2023-09-23T12:47:05.341Z,1.00
2023-09-23T12:49:32.692Z,1.00
2023-09-23T12:51:59.576Z,1.10
2023-09-23T12:54:26.859Z,1.00
2023-09-23T12:56:53.914Z,1.38
2023-09-23T12:59:22.066Z,1.40
2023-09-23T13:01:49.457Z,1.10
2023-09-23T13:04:16.468Z,1.70
2023-09-23T13:06:43.850Z,1.55
2023-09-23T13:09:10.912Z,1.90
2023-09-23T13:11:38.326Z,1.50
2023-09-23T13:14:05.689Z,2.10
2023-09-23T13:16:32.838Z,1.20
2023-09-23T13:19:00.146Z,1.13
2023-09-23T13:21:27.991Z,1.05
2023-09-23T13:23:55.136Z,1.50
2023-09-23T13:26:22.434Z,0.90
2023-09-23T13:28:49.733Z,1.08
2023-09-23T13:31:17.706Z,1.30
2023-09-23T13:33:45.146Z,1.30
2023-09-23T13:36:12.235Z,0.90
2023-09-23T13:38:39.483Z,1.05
2023-09-23T13:41:06.863Z,0.98
2023-09-23T13:43:34.211Z,1.30
2023-09-23T13:46:01.244Z,1.00
2023-09-23T13:48:28.462Z,1.10
2023-09-23T13:50:55.644Z,1.20
2023-09-23T13:53:22.687Z,1.25
2023-09-23T13:55:49.750Z,1.10
2023-09-23T13:58:17.021Z,1.40
2023-09-23T14:00:44.247Z,2.38
2023-09-23T14:03:11.437Z,2.25
2023-09-23T14:05:38.591Z,1.30
2023-09-23T14:08:06.159Z,1.33
2023-09-23T14:10:33.111Z,1.08
2023-09-23T14:13:00.126Z,1.23
2023-09-23T14:15:27.108Z,1.33
2023-09-23T14:17:54.261Z,0.93
2023-09-23T14:20:21.568Z,1.05
2023-09-23T14:22:49.711Z,1.00
2023-09-23T14:25:18.747Z,1.13
2023-09-23T14:27:45.760Z,1.40
2023-09-23T14:30:12.975Z,1.05
2023-09-23T14:32:40.274Z,1.13
2023-09-23T14:35:07.709Z,1.17
2023-09-23T14:37:35.345Z,1.10
2023-09-23T14:40:03.434Z,1.15
2023-09-23T14:42:31.515Z,1.20
2023-09-23T14:44:58.720Z,1.30
2023-09-23T14:47:27.518Z,0.98
2023-09-23T14:50:00.984Z,0.93
2023-09-23T14:52:30.736Z,0.93
2023-09-23T14:54:57.790Z,1.00
2023-09-23T14:57:25.009Z,1.05
2023-09-23T14:59:55.749Z,1.08
2023-09-23T15:02:23.317Z,1.10
2023-09-23T15:04:50.477Z,1.50
2023-09-23T15:07:19.779Z,1.50
2023-09-23T15:09:48.697Z,1.20
2023-09-23T15:12:16.863Z,1.92
2023-09-23T15:14:44.935Z,1.40
2023-09-23T15:17:13.733Z,2.03
2023-09-23T15:19:41.425Z,1.83
2023-09-23T15:22:12.318Z,1.75
2023-09-23T15:24:45.032Z,1.42
2023-09-23T15:27:13.001Z,1.50
2023-09-23T15:29:40.315Z,1.73
2023-09-23T15:32:07.567Z,1.70
2023-09-23T15:34:34.536Z,1.30
2023-09-23T15:37:01.599Z,1.55
2023-09-23T15:39:29.291Z,1.30
2023-09-23T15:41:56.718Z,1.40
2023-09-23T15:44:24.036Z,1.30
2023-09-23T15:46:51.092Z,1.50
2023-09-23T15:49:18.366Z,1.83
2023-09-23T15:51:45.663Z,1.80
2023-09-23T15:54:12.633Z,1.60
2023-09-23T15:56:41.169Z,1.13
2023-09-23T15:59:08.825Z,3.28
2023-09-23T16:01:36.560Z,2.15
2023-09-23T16:04:03.948Z,1.63
2023-09-23T16:06:31.544Z,1.48
2023-09-23T16:08:58.667Z,1.27
2023-09-23T16:11:25.840Z,1.10
2023-09-23T16:13:52.864Z,1.17
2023-09-23T16:16:20.016Z,1.42
2023-09-23T16:18:47.634Z,1.33
2023-09-23T16:21:15.294Z,1.70
2023-09-23T16:23:42.519Z,1.65
2023-09-23T16:26:09.554Z,3.08
2023-09-23T16:28:36.710Z,3.05
2023-09-23T16:31:04.920Z,4.00
2023-09-23T16:33:32.497Z,2.00
2023-09-23T16:35:59.729Z,1.90
2023-09-23T16:38:26.745Z,1.42
2023-09-23T16:40:53.829Z,2.35
2023-09-23T16:43:20.762Z,3.03
2023-09-23T16:45:50.773Z,2.70
2023-09-23T16:48:18.307Z,2.80
2023-09-23T16:50:50.202Z,2.30
2023-09-23T16:53:17.281Z,2.30
2023-09-23T16:55:45.041Z,2.00
2023-09-23T16:58:12.893Z,1.60
2023-09-23T17:00:58.006Z,1.45
2023-09-23T17:03:28.965Z,2.42
2023-09-23T17:05:56.263Z,2.60
2023-09-23T17:08:23.418Z,3.05
2023-09-23T17:10:50.847Z,2.00
2023-09-23T17:13:18.115Z,1.85
2023-09-23T17:15:45.370Z,2.00
2023-09-23T17:18:12.406Z,1.45
2023-09-23T17:20:39.692Z,1.90
2023-09-23T17:23:07.511Z,2.72
2023-09-23T17:25:35.689Z,2.10
2023-09-23T17:28:03.092Z,3.17
2023-09-23T17:30:30.079Z,2.83
2023-09-23T17:32:57.818Z,2.67
2023-09-23T17:35:24.977Z,2.85
2023-09-23T17:37:54.580Z,3.88
2023-09-23T17:40:21.926Z,2.40
2023-09-23T17:42:49.050Z,3.20
2023-09-23T17:45:16.403Z,3.95
2023-09-23T17:47:46.690Z,3.15
2023-09-23T17:50:13.746Z,2.70
2023-09-23T17:52:41.059Z,1.95
2023-09-23T17:55:08.470Z,1.60
2023-09-23T17:57:35.543Z,1.58
2023-09-23T18:00:08.859Z,1.63
2023-09-23T18:02:36.748Z,1.90
2023-09-23T18:05:03.925Z,1.50
2023-09-23T18:07:30.915Z,1.70
2023-09-23T18:09:59.857Z,1.10
2023-09-23T18:12:27.280Z,1.65
2023-09-23T18:15:00.912Z,1.60
2023-09-23T18:17:28.341Z,1.50
2023-09-23T18:19:57.295Z,1.15
2023-09-23T18:22:24.479Z,1.60
2023-09-23T18:24:51.770Z,1.23
2023-09-23T18:27:18.978Z,1.63
2023-09-23T18:29:50.392Z,1.40
2023-09-23T18:32:18.244Z,1.73
2023-09-23T18:34:46.435Z,1.42
2023-09-23T18:37:13.715Z,1.35
2023-09-23T18:39:48.136Z,1.70
2023-09-23T18:44:45.911Z,1.30
2023-09-23T18:47:12.863Z,1.33
2023-09-23T18:49:44.837Z,1.48
2023-09-23T18:52:12.027Z,1.30
2023-09-23T18:54:39.120Z,1.58
2023-09-23T18:57:06.322Z,1.60
2023-09-23T18:59:33.362Z,1.50
2023-09-23T19:02:00.382Z,1.70
2023-09-23T19:04:27.491Z,1.55
2023-09-23T19:06:54.807Z,1.85
2023-09-23T19:09:22.079Z,1.88
2023-09-23T19:11:51.854Z,1.52
2023-09-23T19:14:20.257Z,1.48
2023-09-23T19:16:47.336Z,1.42
2023-09-23T19:19:14.992Z,1.38
2023-09-23T19:21:41.952Z,1.38
2023-09-23T19:24:09.545Z,1.85
2023-09-23T19:26:49.403Z,1.30
2023-09-23T19:29:24.521Z,1.08
2023-09-23T19:31:51.744Z,1.30
2023-09-23T19:34:18.817Z,1.60
2023-09-23T19:36:48.866Z,1.50
2023-09-23T19:39:15.911Z,1.45
2023-09-23T19:41:42.974Z,1.55
2023-09-23T19:44:09.966Z,1.70
2023-09-23T19:46:37.140Z,1.55
2023-09-23T19:49:04.400Z,1.88
2023-09-23T19:51:32.356Z,2.25
2023-09-23T19:53:59.726Z,1.95
2023-09-23T19:56:26.985Z,1.42
2023-09-23T19:58:54.087Z,1.75
2023-09-23T20:01:22.843Z,1.95
2023-09-23T20:03:51.015Z,1.67
2023-09-23T20:06:19.960Z,1.50
2023-09-23T20:08:47.376Z,1.65
2023-09-23T20:11:14.498Z,1.45
2023-09-23T20:13:41.558Z,1.33
2023-09-23T20:16:09.435Z,1.45
2023-09-23T20:18:36.981Z,1.60
2023-09-23T20:21:04.126Z,1.67
2023-09-23T20:23:32.795Z,1.95
2023-09-23T20:26:01.023Z,1.60
2023-09-23T20:28:28.465Z,1.60
2023-09-23T20:31:02.199Z,1.50
2023-09-23T20:33:29.732Z,1.77
2023-09-23T20:35:56.969Z,1.50
2023-09-23T20:38:26.793Z,1.55
2023-09-23T20:41:03.959Z,1.88
2023-09-23T20:43:31.981Z,1.70
2023-09-23T20:45:59.061Z,1.50
2023-09-23T20:48:26.252Z,1.20
2023-09-23T20:50:53.340Z,1.58
2023-09-23T20:53:20.472Z,1.20
2023-09-23T20:55:47.521Z,1.15
2023-09-23T20:58:14.670Z,1.40
2023-09-23T21:00:42.394Z,1.50
2023-09-23T21:03:10.265Z,1.60
2023-09-23T21:05:37.812Z,1.65
2023-09-23T21:08:06.414Z,1.67
2023-09-23T21:10:35.293Z,1.63
2023-09-23T21:13:02.310Z,1.48
2023-09-23T21:15:29.551Z,1.50
2023-09-23T21:17:56.812Z,1.65
2023-09-23T21:20:23.855Z,1.67
2023-09-23T21:22:50.908Z,1.65
2023-09-23T21:25:20.728Z,1.48
2023-09-23T21:27:47.738Z,1.38
2023-09-23T21:30:15.102Z,1.73
2023-09-23T21:32:42.700Z,1.10
2023-09-23T21:35:09.797Z,1.60
2023-09-23T21:37:37.093Z,1.30
2023-09-23T21:40:04.492Z,1.48
2023-09-23T21:42:31.589Z,1.83
2023-09-23T21:44:59.164Z,1.42
2023-09-23T21:47:26.489Z,1.60
2023-09-23T21:49:54.331Z,1.80
2023-09-23T21:52:21.619Z,1.90
2023-09-23T21:54:52.220Z,1.60
2023-09-23T21:57:19.445Z,1.90
2023-09-23T21:59:46.885Z,1.92
2023-09-23T22:02:15.253Z,1.95
2023-09-23T22:04:46.613Z,1.58
2023-09-23T22:07:14.007Z,2.33
2023-09-23T22:09:41.282Z,1.60
2023-09-23T22:12:08.844Z,1.67
2023-09-23T22:14:36.036Z,1.60
2023-09-23T22:17:03.338Z,1.77
2023-09-23T22:19:32.245Z,1.77
2023-09-23T22:21:59.227Z,2.03
2023-09-23T22:24:26.094Z,1.65
2023-09-23T22:26:54.883Z,1.60
2023-09-23T22:29:22.308Z,1.83
2023-09-23T22:31:49.541Z,1.85
2023-09-23T22:34:16.726Z,1.85
2023-09-23T22:36:43.873Z,1.90
2023-09-23T22:39:14.028Z,1.88
2023-09-23T22:41:41.175Z,2.00
2023-09-23T22:44:08.493Z,2.13
2023-09-23T22:46:36.917Z,1.67
2023-09-23T22:49:04.333Z,1.58
2023-09-23T22:51:32.220Z,1.88
2023-09-23T22:53:59.142Z,2.38
2023-09-23T22:56:26.599Z,1.80
2023-09-23T22:58:53.863Z,1.60
2023-09-23T23:01:21.331Z,2.38
2023-09-23T23:03:49.490Z,2.20
2023-09-23T23:06:16.824Z,2.25
2023-09-23T23:08:44.636Z,2.30
2023-09-23T23:11:12.592Z,2.08
2023-09-23T23:13:40.066Z,1.80
2023-09-23T23:16:13.777Z,2.28
2023-09-23T23:18:42.554Z,2.28
2023-09-23T23:21:09.799Z,2.15
2023-09-23T23:23:37.297Z,2.30
2023-09-23T23:26:08.224Z,2.00
2023-09-23T23:28:35.840Z,2.00
2023-09-23T23:31:05.545Z,1.60
2023-09-23T23:33:33.348Z,1.98
2023-09-23T23:36:01.843Z,2.00
2023-09-23T23:38:30.601Z,1.80
2023-09-23T23:40:59.018Z,2.22
2023-09-23T23:43:26.189Z,2.05
2023-09-23T23:46:06.174Z,1.77
2023-09-23T23:48:33.605Z,1.90
2023-09-23T23:51:11.785Z,1.63
2023-09-23T23:53:40.111Z,2.15
2023-09-23T23:56:07.589Z,2.35
2023-09-23T23:58:34.828Z,2.00
